createdAt,value
2019-05-29T00:02:12.340Z,8.97
2019-05-29T00:04:41.029Z,8.97
2019-05-29T00:07:10.141Z,8.07
2019-05-29T00:09:38.953Z,9.17
2019-05-29T00:12:10.688Z,8.53
2019-05-29T00:14:37.969Z,9.20
2019-05-29T00:17:06.687Z,9.47
2019-05-29T00:19:35.374Z,9.00
2019-05-29T00:22:04.151Z,9.30
2019-05-29T00:24:32.822Z,10.20
2019-05-29T00:27:01.494Z,8.80
2019-05-29T00:29:30.227Z,9.57
2019-05-29T00:31:58.982Z,10.33
2019-05-29T00:34:27.748Z,9.93
2019-05-29T00:36:56.429Z,9.57
2019-05-29T00:39:25.110Z,9.97
2019-05-29T00:42:14.345Z,9.60
2019-05-29T00:44:43.623Z,9.30
2019-05-29T00:47:12.299Z,9.80
2019-05-29T00:49:40.994Z,10.07
2019-05-29T00:52:10.021Z,10.93
2019-05-29T00:54:38.806Z,9.83
2019-05-29T00:57:08.690Z,9.77
2019-05-29T00:59:37.475Z,9.67
2019-05-29T01:02:06.153Z,9.50
2019-05-29T01:04:34.872Z,10.30
2019-05-29T01:07:03.552Z,9.70
2019-05-29T01:09:32.298Z,10.40
2019-05-29T01:12:00.995Z,10.10
2019-05-29T01:14:29.673Z,10.63
2019-05-29T01:16:58.387Z,10.00
2019-05-29T01:19:27.066Z,10.17
2019-05-29T01:21:58.778Z,10.63
2019-05-29T01:24:27.455Z,10.90
2019-05-29T01:26:56.130Z,10.20
2019-05-29T01:29:24.862Z,10.00
2019-05-29T01:31:53.547Z,10.10
2019-05-29T01:34:22.291Z,10.83
2019-05-29T01:36:50.984Z,10.13
2019-05-29T01:39:19.660Z,10.40
2019-05-29T01:41:48.373Z,9.83
2019-05-29T01:44:17.372Z,9.80
2019-05-29T01:46:46.418Z,10.23
2019-05-29T01:49:15.992Z,9.90
2019-05-29T01:51:44.906Z,10.20
2019-05-29T01:54:13.632Z,10.43
2019-05-29T01:56:42.314Z,10.40
2019-05-29T01:59:11.065Z,10.40
2019-05-29T02:01:39.747Z,9.97
2019-05-29T02:04:08.426Z,10.57
2019-05-29T02:06:37.148Z,10.77
2019-05-29T02:09:07.138Z,10.20
2019-05-29T02:11:35.900Z,10.23
2019-05-29T02:14:04.591Z,10.33
2019-05-29T02:16:33.358Z,10.50
2019-05-29T02:19:02.085Z,10.00
2019-05-29T02:21:30.772Z,10.83
2019-05-29T02:23:59.594Z,10.67
2019-05-29T02:26:28.328Z,10.60
2019-05-29T02:28:57.002Z,10.60
2019-05-29T02:31:28.212Z,10.33
2019-05-29T02:33:56.063Z,10.33
2019-05-29T02:36:26.670Z,10.70
2019-05-29T02:38:55.133Z,10.73
2019-05-29T02:41:25.701Z,10.80
2019-05-29T02:43:54.202Z,10.07
2019-05-29T02:46:23.929Z,9.17
2019-05-29T02:48:53.195Z,9.70
2019-05-29T02:51:22.137Z,9.37
2019-05-29T02:53:50.984Z,8.33
2019-05-29T02:56:20.684Z,6.80
2019-05-29T02:58:49.627Z,6.13
2019-05-29T03:01:18.294Z,6.70
2019-05-29T03:03:47.021Z,5.50
2019-05-29T03:06:15.695Z,6.47
2019-05-29T03:08:44.450Z,6.30
2019-05-29T03:11:13.126Z,6.07
2019-05-29T03:13:41.803Z,6.53
2019-05-29T03:16:12.712Z,6.40
2019-05-29T03:18:40.885Z,6.40
2019-05-29T03:21:09.562Z,6.73
2019-05-29T03:23:38.285Z,7.13
2019-05-29T03:26:07.076Z,7.23
2019-05-29T03:28:35.825Z,7.73
2019-05-29T03:31:04.509Z,7.23
2019-05-29T03:33:41.012Z,7.00
2019-05-29T03:36:03.605Z,6.40
2019-05-29T03:38:32.640Z,4.83
2019-05-29T03:41:02.016Z,5.10
2019-05-29T03:43:31.544Z,4.10
2019-05-29T03:46:01.012Z,3.50
2019-05-29T03:48:30.082Z,3.67
2019-05-29T03:50:59.217Z,3.33
2019-05-29T03:53:29.151Z,3.67
2019-05-29T03:55:58.073Z,3.90
2019-05-29T03:58:28.695Z,3.23
2019-05-29T04:00:57.144Z,3.70
2019-05-29T04:03:26.940Z,3.67
2019-05-29T04:05:55.807Z,3.23
2019-05-29T04:08:24.530Z,3.30
2019-05-29T04:10:53.213Z,4.10
2019-05-29T04:13:22.078Z,62.93
2019-05-29T04:15:50.871Z,38.63
2019-05-29T04:18:19.930Z,3.17
2019-05-29T04:20:48.789Z,3.10
2019-05-29T04:23:17.478Z,3.33
2019-05-29T04:25:46.228Z,2.63
2019-05-29T04:28:14.903Z,2.83
2019-05-29T04:30:43.585Z,3.17
2019-05-29T04:33:12.298Z,2.60
2019-05-29T04:35:40.982Z,2.50
2019-05-29T04:38:09.732Z,2.57
2019-05-29T04:40:39.612Z,2.30
2019-05-29T04:43:08.505Z,2.50
2019-05-29T04:45:39.232Z,2.40
2019-05-29T04:48:07.586Z,2.57
2019-05-29T04:50:38.185Z,3.03
2019-05-29T04:53:06.634Z,2.73
2019-05-29T04:55:35.311Z,2.53
2019-05-29T04:58:04.057Z,2.60
2019-05-29T05:00:33.118Z,2.60
2019-05-29T05:03:01.935Z,2.73
2019-05-29T05:05:31.169Z,2.97
2019-05-29T05:08:00.037Z,2.87
2019-05-29T05:10:34.140Z,2.50
2019-05-29T05:13:02.815Z,2.77
2019-05-29T05:15:33.663Z,3.53
2019-05-29T05:18:02.466Z,2.70
2019-05-29T05:20:31.951Z,3.30
2019-05-29T05:23:00.727Z,3.00
2019-05-29T05:25:30.028Z,3.20
2019-05-29T05:27:58.813Z,3.03
2019-05-29T05:30:27.554Z,3.90
2019-05-29T05:32:56.235Z,3.00
2019-05-29T05:35:24.901Z,3.17
2019-05-29T05:37:53.658Z,2.87
2019-05-29T05:40:22.407Z,3.00
2019-05-29T05:42:51.173Z,2.70
2019-05-29T05:45:19.843Z,3.13
2019-05-29T05:47:56.825Z,2.57
2019-05-29T05:50:18.867Z,2.70
2019-05-29T05:52:47.563Z,3.00
2019-05-29T05:55:16.705Z,2.73
2019-05-29T05:57:45.379Z,2.80
2019-05-29T06:00:14.076Z,2.60
2019-05-29T06:02:42.834Z,2.73
2019-05-29T06:05:11.498Z,2.53
2019-05-29T06:07:40.483Z,2.40
2019-05-29T06:10:09.395Z,2.53
2019-05-29T06:12:40.492Z,3.63
2019-05-29T06:15:09.431Z,2.80
2019-05-29T06:17:38.781Z,2.50
2019-05-29T06:20:10.462Z,2.47
2019-05-29T06:22:39.266Z,2.83
2019-05-29T06:25:07.961Z,3.27
2019-05-29T06:27:37.136Z,2.80
2019-05-29T06:30:07.368Z,2.57
2019-05-29T06:32:37.269Z,2.30
2019-05-29T06:35:07.106Z,2.57
2019-05-29T06:37:35.788Z,2.50
2019-05-29T06:40:05.666Z,2.60
2019-05-29T06:42:35.606Z,2.20
2019-05-29T06:45:06.262Z,2.90
2019-05-29T06:47:36.456Z,2.67
2019-05-29T06:50:05.950Z,2.70
2019-05-29T06:52:35.357Z,2.43
2019-05-29T06:55:04.230Z,2.50
2019-05-29T06:57:32.908Z,2.67
2019-05-29T07:00:01.649Z,2.40
2019-05-29T07:02:31.903Z,2.90
2019-05-29T07:05:00.801Z,2.13
2019-05-29T07:07:29.545Z,2.83
2019-05-29T07:09:58.216Z,2.60
2019-05-29T07:12:26.891Z,2.60
2019-05-29T07:14:55.599Z,2.60
2019-05-29T07:17:24.280Z,2.60
2019-05-29T07:20:02.783Z,2.77
2019-05-29T07:22:23.329Z,2.50
2019-05-29T07:24:52.022Z,2.70
2019-05-29T07:27:20.726Z,2.87
2019-05-29T07:29:49.392Z,2.53
2019-05-29T07:32:18.146Z,2.60
2019-05-29T07:34:57.873Z,2.57
2019-05-29T07:37:17.154Z,3.13
2019-05-29T07:39:45.861Z,2.60
2019-05-29T07:42:14.538Z,2.40
2019-05-29T07:44:44.041Z,2.60
2019-05-29T07:47:12.859Z,2.40
2019-05-29T07:49:44.448Z,2.37
2019-05-29T07:52:11.911Z,2.97
2019-05-29T07:54:41.627Z,2.40
2019-05-29T07:57:10.554Z,2.30
2019-05-29T07:59:40.296Z,2.17
2019-05-29T08:02:09.642Z,2.03
2019-05-29T08:04:38.910Z,2.70
2019-05-29T08:07:07.650Z,2.73
2019-05-29T08:09:36.351Z,2.47
2019-05-29T08:12:05.046Z,2.60
2019-05-29T08:14:33.722Z,1.90
2019-05-29T08:17:02.455Z,2.37
2019-05-29T08:19:31.732Z,1.97
2019-05-29T08:22:00.409Z,2.27
2019-05-29T08:24:29.130Z,2.40
2019-05-29T08:26:57.795Z,2.40
2019-05-29T08:29:26.544Z,2.40
2019-05-29T08:31:55.209Z,1.90
2019-05-29T08:34:23.896Z,2.23
2019-05-29T08:37:04.907Z,2.27
2019-05-29T08:39:35.140Z,2.03
2019-05-29T08:42:17.445Z,2.37
2019-05-29T08:44:23.680Z,2.50
2019-05-29T08:47:08.954Z,2.30
2019-05-29T08:49:22.756Z,1.90
2019-05-29T08:51:52.334Z,2.00
2019-05-29T08:54:24.163Z,1.90
2019-05-29T08:56:52.530Z,2.00
2019-05-29T08:59:21.331Z,2.23
2019-05-29T09:01:52.700Z,2.60
2019-05-29T09:04:20.429Z,1.70
2019-05-29T09:06:49.264Z,2.10
2019-05-29T09:09:18.075Z,1.80
2019-05-29T09:11:47.557Z,2.10
2019-05-29T09:14:16.433Z,1.90
2019-05-29T09:16:45.148Z,1.90
2019-05-29T09:19:14.185Z,2.03
2019-05-29T09:21:42.958Z,2.33
2019-05-29T09:24:14.599Z,2.47
2019-05-29T09:26:46.357Z,2.53
2019-05-29T09:29:16.802Z,2.07
2019-05-29T09:31:44.232Z,2.43
2019-05-29T09:34:13.879Z,2.50
2019-05-29T09:36:43.454Z,2.00
2019-05-29T09:39:12.119Z,1.90
2019-05-29T09:41:40.853Z,2.20
2019-05-29T09:44:09.540Z,2.47
2019-05-29T09:46:38.203Z,2.20
2019-05-29T09:49:06.920Z,2.40
2019-05-29T09:51:35.589Z,2.70
2019-05-29T09:54:04.430Z,2.53
2019-05-29T09:56:33.129Z,2.43
2019-05-29T09:59:02.445Z,2.23
2019-05-29T10:01:32.158Z,2.33
2019-05-29T10:04:03.442Z,2.47
2019-05-29T10:06:31.246Z,2.20
2019-05-29T10:09:00.111Z,2.60
2019-05-29T10:11:28.990Z,2.33
2019-05-29T10:13:58.834Z,2.10
2019-05-29T10:16:28.092Z,2.13
2019-05-29T10:18:58.483Z,2.03
2019-05-29T10:21:39.433Z,1.80
2019-05-29T10:23:57.975Z,2.23
2019-05-29T10:26:27.844Z,1.93
2019-05-29T10:29:07.987Z,2.20
2019-05-29T10:31:26.839Z,2.30
2019-05-29T10:33:55.545Z,2.20
2019-05-29T10:36:24.306Z,2.50
2019-05-29T10:38:53.173Z,2.10
2019-05-29T10:41:21.846Z,2.53
2019-05-29T10:43:51.345Z,1.97
2019-05-29T10:46:20.243Z,2.70
2019-05-29T10:48:52.244Z,2.20
2019-05-29T10:51:19.319Z,2.27
2019-05-29T10:53:50.401Z,2.30
2019-05-29T10:56:21.013Z,2.30
2019-05-29T10:58:54.411Z,2.57
2019-05-29T11:01:19.303Z,2.17
2019-05-29T11:03:49.233Z,2.30
2019-05-29T11:06:18.119Z,2.47
2019-05-29T11:08:47.988Z,2.23
2019-05-29T11:11:16.831Z,2.20
2019-05-29T11:13:46.701Z,2.40
2019-05-29T11:16:15.490Z,2.20
2019-05-29T11:18:44.198Z,2.20
2019-05-29T11:21:12.878Z,2.00
2019-05-29T11:23:41.631Z,1.80
2019-05-29T11:26:10.351Z,1.93
2019-05-29T11:28:39.022Z,1.80
2019-05-29T11:31:07.739Z,2.17
2019-05-29T11:33:36.407Z,2.30
2019-05-29T11:36:12.436Z,2.20
2019-05-29T11:38:35.667Z,2.23
2019-05-29T11:41:25.095Z,2.20
2019-05-29T11:43:34.795Z,2.30
2019-05-29T11:46:03.479Z,2.10
2019-05-29T11:48:32.158Z,1.90
2019-05-29T11:51:00.875Z,1.93
2019-05-29T11:53:29.551Z,1.70
2019-05-29T11:55:58.598Z,1.90
2019-05-29T11:58:31.459Z,2.00
2019-05-29T12:00:59.201Z,2.20
2019-05-29T12:03:28.137Z,1.80
2019-05-29T12:05:57.589Z,2.00
2019-05-29T12:08:26.450Z,1.50
2019-05-29T12:10:55.375Z,1.70
2019-05-29T12:13:24.098Z,2.00
2019-05-29T12:15:53.643Z,1.70
2019-05-29T12:18:24.137Z,1.60
2019-05-29T12:20:53.997Z,1.63
2019-05-29T12:23:26.507Z,2.20
2019-05-29T12:26:12.623Z,1.80
2019-05-29T12:28:23.575Z,1.90
2019-05-29T12:30:53.405Z,2.00
2019-05-29T12:33:22.654Z,1.60
2019-05-29T12:35:51.366Z,1.90
2019-05-29T12:38:20.053Z,1.70
2019-05-29T12:40:48.791Z,1.80
2019-05-29T12:43:26.391Z,2.10
2019-05-29T12:45:47.789Z,1.80
2019-05-29T12:48:16.894Z,2.10
2019-05-29T12:50:45.902Z,1.93
2019-05-29T12:53:28.772Z,1.77
2019-05-29T12:55:44.962Z,2.20
2019-05-29T12:58:13.639Z,1.80
2019-05-29T13:00:42.445Z,1.43
2019-05-29T13:03:11.098Z,1.50
2019-05-29T13:05:39.782Z,2.03
2019-05-29T13:08:08.493Z,1.83
2019-05-29T13:10:37.172Z,1.70
2019-05-29T13:13:10.599Z,1.77
2019-05-29T13:15:36.234Z,1.77
2019-05-29T13:18:09.520Z,1.60
2019-05-29T13:20:35.362Z,1.70
2019-05-29T13:23:05.429Z,2.03
2019-05-29T13:25:34.423Z,1.80
2019-05-29T13:28:04.356Z,1.70
2019-05-29T13:30:33.593Z,1.73
2019-05-29T13:33:04.719Z,1.60
2019-05-29T13:35:32.630Z,1.67
2019-05-29T13:38:01.441Z,1.57
2019-05-29T13:40:30.152Z,1.50
2019-05-29T13:43:04.458Z,1.20
2019-05-29T13:45:29.263Z,1.97
2019-05-29T13:47:59.123Z,1.53
2019-05-29T13:50:27.936Z,1.63
2019-05-29T13:52:57.144Z,1.93
2019-05-29T13:55:25.931Z,1.80
2019-05-29T13:57:54.654Z,1.70
2019-05-29T14:00:33.153Z,1.60
2019-05-29T14:02:53.682Z,1.70
2019-05-29T14:05:22.382Z,1.60
2019-05-29T14:07:51.057Z,1.40
2019-05-29T14:10:19.811Z,1.60
2019-05-29T14:12:48.490Z,1.62
2019-05-29T14:15:17.164Z,1.50
2019-05-29T14:17:45.923Z,1.50
2019-05-29T14:20:14.611Z,1.40
2019-05-29T14:22:43.294Z,2.30
2019-05-29T14:25:12.011Z,2.17
2019-05-29T14:27:40.695Z,1.47
2019-05-29T14:30:10.595Z,1.20
2019-05-29T14:32:39.723Z,1.35
2019-05-29T14:35:10.370Z,1.57
2019-05-29T14:37:38.797Z,1.50
2019-05-29T14:40:07.911Z,1.32
2019-05-29T14:42:36.830Z,1.45
2019-05-29T14:45:08.120Z,1.65
2019-05-29T14:47:37.021Z,1.42
2019-05-29T14:50:08.514Z,1.93
2019-05-29T14:52:37.587Z,1.73
2019-05-29T14:55:06.762Z,1.50
2019-05-29T14:57:35.601Z,1.50
2019-05-29T15:00:18.867Z,1.60
2019-05-29T15:02:38.751Z,1.50
2019-05-29T15:05:07.717Z,1.80
2019-05-29T15:07:36.706Z,1.30
2019-05-29T15:10:21.662Z,1.60
2019-05-29T15:12:38.979Z,1.40
2019-05-29T15:15:08.891Z,1.67
2019-05-29T15:17:37.765Z,1.57
2019-05-29T15:20:09.352Z,1.50
2019-05-29T15:22:38.128Z,1.50
2019-05-29T15:25:17.401Z,1.87
2019-05-29T15:27:37.674Z,1.70
2019-05-29T15:30:08.553Z,1.63
2019-05-29T15:32:37.488Z,1.60
2019-05-29T15:35:10.897Z,1.60
2019-05-29T15:37:37.402Z,1.30
2019-05-29T15:40:09.091Z,1.50
2019-05-29T15:42:37.799Z,1.70
2019-05-29T15:45:07.692Z,1.30
2019-05-29T15:47:36.543Z,1.57
2019-05-29T15:50:09.193Z,1.80
2019-05-29T15:52:38.058Z,2.10
2019-05-29T15:55:22.456Z,1.30
2019-05-29T15:57:37.532Z,2.20
2019-05-29T16:00:09.055Z,1.47
2019-05-29T16:02:37.847Z,1.83
2019-05-29T16:05:08.597Z,1.40
2019-05-29T16:07:37.560Z,1.70
2019-05-29T16:10:08.213Z,1.40
2019-05-29T16:12:37.039Z,1.40
2019-05-29T16:15:08.931Z,1.80
2019-05-29T16:17:37.834Z,1.53
2019-05-29T16:20:08.151Z,1.53
2019-05-29T16:22:36.822Z,1.60
2019-05-29T16:25:06.418Z,1.60
2019-05-29T16:27:35.176Z,1.87
2019-05-29T16:30:08.042Z,1.53
2019-05-29T16:32:36.736Z,1.53
2019-05-29T16:35:11.268Z,1.50
2019-05-29T16:37:39.944Z,1.40
2019-05-29T16:40:16.122Z,1.60
2019-05-29T16:42:45.087Z,1.77
2019-05-29T16:45:16.320Z,1.50
2019-05-29T16:47:45.273Z,1.60
2019-05-29T16:50:14.933Z,2.00
2019-05-29T16:52:44.002Z,1.57
2019-05-29T16:55:12.999Z,1.70
2019-05-29T16:57:41.801Z,1.60
2019-05-29T17:00:11.534Z,1.57
2019-05-29T17:02:40.334Z,1.70
2019-05-29T17:05:09.046Z,2.73
2019-05-29T17:07:37.769Z,1.50
2019-05-29T17:10:07.058Z,1.70
2019-05-29T17:12:35.828Z,1.70
2019-05-29T17:15:10.654Z,1.80
2019-05-29T17:17:39.433Z,1.80
2019-05-29T17:20:09.783Z,1.90
2019-05-29T17:22:38.457Z,1.63
2019-05-29T17:25:07.302Z,2.00
2019-05-29T17:27:36.024Z,1.80
2019-05-29T17:30:06.311Z,1.83
2019-05-29T17:32:35.244Z,1.73
2019-05-29T17:35:08.342Z,1.90
2019-05-29T17:37:37.478Z,2.00
2019-05-29T17:40:07.200Z,2.53
2019-05-29T17:42:35.893Z,2.00
2019-05-29T17:45:07.030Z,2.20
2019-05-29T17:47:35.895Z,1.87
2019-05-29T17:50:06.723Z,1.80
2019-05-29T17:52:35.532Z,1.87
2019-05-29T17:55:06.076Z,2.40
2019-05-29T17:57:34.954Z,2.20
2019-05-29T18:00:10.790Z,2.70
2019-05-29T18:02:51.429Z,2.40
2019-05-29T18:05:09.923Z,3.40
2019-05-29T18:07:38.637Z,2.10
2019-05-29T18:10:07.532Z,2.37
2019-05-29T18:12:36.223Z,2.30
2019-05-29T18:15:07.194Z,2.50
2019-05-29T18:17:35.973Z,3.03
2019-05-29T18:20:07.834Z,2.97
2019-05-29T18:22:36.554Z,3.13
2019-05-29T18:25:08.443Z,2.40
2019-05-29T18:27:37.134Z,3.00
2019-05-29T18:30:09.066Z,3.20
2019-05-29T18:32:37.857Z,3.47
2019-05-29T18:35:09.295Z,2.87
2019-05-29T18:37:38.034Z,3.30
2019-05-29T18:40:09.886Z,3.00
2019-05-29T18:42:37.172Z,3.10
2019-05-29T18:45:19.638Z,3.47
2019-05-29T18:47:37.632Z,3.20
2019-05-29T18:50:07.918Z,3.90
2019-05-29T18:52:36.602Z,3.00
2019-05-29T18:55:06.656Z,4.80
2019-05-29T18:57:35.387Z,3.50
2019-05-29T19:00:08.396Z,3.70
2019-05-29T19:02:37.147Z,3.70
2019-05-29T19:05:06.329Z,3.97
2019-05-29T19:07:35.016Z,4.47
2019-05-29T19:10:06.700Z,4.10
2019-05-29T19:12:35.923Z,3.20
2019-05-29T19:15:06.576Z,3.70
2019-05-29T19:17:35.308Z,4.07
2019-05-29T19:20:04.277Z,4.37
2019-05-29T19:22:33.157Z,4.10
2019-05-29T19:25:01.858Z,3.80
2019-05-29T19:27:39.189Z,4.37
2019-05-29T19:30:00.952Z,3.87
2019-05-29T19:32:29.629Z,4.23
2019-05-29T19:34:58.390Z,3.83
2019-05-29T19:37:27.915Z,3.80
2019-05-29T19:39:56.778Z,3.43
2019-05-29T19:42:26.141Z,6.17
2019-05-29T19:44:54.919Z,3.73
2019-05-29T19:47:24.568Z,4.10
2019-05-29T19:49:53.432Z,3.43
2019-05-29T19:52:22.131Z,5.60
2019-05-29T19:54:50.930Z,5.00
2019-05-29T19:57:19.643Z,4.17
2019-05-29T19:59:48.334Z,4.20
2019-05-29T20:02:17.057Z,4.00
2019-05-29T20:04:45.742Z,4.70
2019-05-29T20:07:14.492Z,4.37
2019-05-29T20:09:43.169Z,5.20
2019-05-29T20:12:11.850Z,5.20
2019-05-29T20:14:40.579Z,5.77
2019-05-29T20:17:09.254Z,5.63
2019-05-29T20:19:40.843Z,5.67
2019-05-29T20:22:08.342Z,5.87
2019-05-29T20:24:37.031Z,5.60
2019-05-29T20:27:05.750Z,5.70
2019-05-29T20:29:34.490Z,5.40
2019-05-29T20:32:03.182Z,5.97
2019-05-29T20:34:32.757Z,5.60
2019-05-29T20:37:01.621Z,6.20
2019-05-29T20:39:30.400Z,6.77
2019-05-29T20:41:59.079Z,7.20
2019-05-29T20:44:27.778Z,6.67
2019-05-29T20:46:56.492Z,6.47
2019-05-29T20:52:39.301Z,7.00
2019-05-29T20:55:08.502Z,7.90
2019-05-29T20:57:40.050Z,7.43
2019-05-29T21:00:14.827Z,8.20
2019-05-29T21:02:49.441Z,8.90
2019-05-29T21:05:18.203Z,8.03
2019-05-29T21:07:46.975Z,8.87
2019-05-29T21:10:15.658Z,8.87
2019-05-29T21:12:47.476Z,8.83
2019-05-29T21:15:14.751Z,8.20
2019-05-29T21:17:44.983Z,8.97
2019-05-29T21:20:13.759Z,8.53
2019-05-29T21:22:42.961Z,7.87
2019-05-29T21:25:17.147Z,8.63
2019-05-29T21:27:46.686Z,8.17
2019-05-29T21:30:12.925Z,8.13
2019-05-29T21:32:41.959Z,7.60
2019-05-29T21:35:10.747Z,7.53
2019-05-29T21:37:40.343Z,7.47
2019-05-29T21:40:09.301Z,7.80
2019-05-29T21:42:38.530Z,7.47
2019-05-29T21:45:07.481Z,7.10
2019-05-29T21:47:37.063Z,7.00
2019-05-29T21:50:06.902Z,6.90
2019-05-29T21:52:35.656Z,6.60
2019-05-29T21:55:05.764Z,6.53
2019-05-29T21:57:34.453Z,7.37
2019-05-29T22:00:03.174Z,7.63
2019-05-29T22:02:31.871Z,7.67
2019-05-29T22:05:00.681Z,8.03
2019-05-29T22:07:29.359Z,9.30
2019-05-29T22:09:58.732Z,8.37
2019-05-29T22:12:27.599Z,7.73
2019-05-29T22:14:56.854Z,7.10
2019-05-29T22:17:25.677Z,7.03
2019-05-29T22:19:54.916Z,6.60
2019-05-29T22:22:23.691Z,6.50
2019-05-29T22:24:53.097Z,6.40
2019-05-29T22:27:21.847Z,6.40
2019-05-29T22:29:51.932Z,6.23
2019-05-29T22:32:20.903Z,6.17
2019-05-29T22:34:49.582Z,5.97
2019-05-29T22:37:18.341Z,6.67
2019-05-29T22:39:47.025Z,6.70
2019-05-29T22:42:15.699Z,7.20
2019-05-29T22:44:44.416Z,7.00
2019-05-29T22:47:13.104Z,6.57
2019-05-29T22:49:41.861Z,5.90
2019-05-29T22:52:10.547Z,6.03
2019-05-29T22:54:39.267Z,6.13
2019-05-29T22:57:08.032Z,6.13
2019-05-29T22:59:36.712Z,7.90
2019-05-29T23:02:05.397Z,7.40
2019-05-29T23:04:34.107Z,6.33
2019-05-29T23:07:02.792Z,6.17
2019-05-29T23:09:31.529Z,6.53
2019-05-29T23:12:00.447Z,5.77
2019-05-29T23:14:29.184Z,5.23
2019-05-29T23:16:58.561Z,6.00
2019-05-29T23:19:27.405Z,6.30
2019-05-29T23:21:56.518Z,6.50
2019-05-29T23:24:25.279Z,5.60
2019-05-29T23:26:54.990Z,6.10
2019-05-29T23:29:23.719Z,5.70
2019-05-29T23:31:52.837Z,5.70
2019-05-29T23:34:21.747Z,5.87
2019-05-29T23:36:50.451Z,6.00
2019-05-29T23:39:19.106Z,5.63
2019-05-29T23:41:47.882Z,5.77
2019-05-29T23:44:16.645Z,6.27
2019-05-29T23:46:45.526Z,5.67
2019-05-29T23:49:14.235Z,5.93
2019-05-29T23:51:42.940Z,5.23
2019-05-29T23:54:11.747Z,7.17
2019-05-29T23:56:40.522Z,5.90
2019-05-29T23:59:09.213Z,4.97
